createdAt,value
2019-03-30T00:00:51.501Z,20.36
2019-03-30T00:01:51.454Z,20.37
2019-03-30T00:02:51.444Z,20.36
2019-03-30T00:03:51.437Z,20.36
2019-03-30T00:04:51.426Z,20.36
2019-03-30T00:05:51.449Z,20.37
2019-03-30T00:06:51.399Z,20.36
2019-03-30T00:07:51.397Z,20.36
2019-03-30T00:08:51.389Z,20.36
2019-03-30T00:09:51.373Z,20.36
2019-03-30T00:10:51.403Z,20.36
2019-03-30T00:11:51.347Z,20.34
2019-03-30T00:12:51.333Z,20.34
2019-03-30T00:13:51.325Z,20.34
2019-03-30T00:14:51.315Z,20.36
2019-03-30T00:15:51.303Z,20.34
2019-03-30T00:16:51.324Z,20.34
2019-03-30T00:17:51.282Z,20.34
2019-03-30T00:18:51.275Z,20.34
2019-03-30T00:19:51.265Z,20.34
2019-03-30T00:20:51.250Z,20.36
2019-03-30T00:21:51.292Z,20.34
2019-03-30T00:22:51.231Z,20.34
2019-03-30T00:23:51.215Z,20.34
2019-03-30T00:24:51.204Z,20.34
2019-03-30T00:25:51.193Z,20.36
2019-03-30T00:26:51.186Z,20.34
2019-03-30T00:27:51.207Z,20.36
2019-03-30T00:28:51.223Z,20.36
2019-03-30T00:29:51.150Z,20.34
2019-03-30T00:30:51.146Z,20.34
2019-03-30T00:31:51.135Z,20.36
2019-03-30T00:32:51.114Z,20.36
2019-03-30T00:33:51.115Z,20.34
2019-03-30T00:34:51.127Z,20.34
2019-03-30T00:35:51.093Z,20.34
2019-03-30T00:36:51.080Z,20.36
2019-03-30T00:37:51.064Z,20.34
2019-03-30T00:38:51.053Z,20.36
2019-03-30T00:39:51.269Z,20.36
2019-03-30T00:40:51.032Z,20.34
2019-03-30T00:41:51.021Z,20.34
2019-03-30T00:42:51.007Z,20.36
2019-03-30T00:43:51.002Z,20.36
2019-03-30T00:44:50.986Z,20.36
2019-03-30T00:45:51.006Z,20.34
2019-03-30T00:46:50.966Z,20.36
2019-03-30T00:47:50.958Z,20.34
2019-03-30T00:48:50.939Z,20.36
2019-03-30T00:49:50.936Z,20.36
2019-03-30T00:50:50.952Z,20.34
2019-03-30T00:51:50.908Z,20.37
2019-03-30T00:52:50.901Z,20.36
2019-03-30T00:53:50.885Z,20.36
2019-03-30T00:54:50.892Z,20.36
2019-03-30T00:55:50.893Z,20.34
2019-03-30T00:56:50.856Z,20.36
2019-03-30T00:57:50.843Z,20.36
2019-03-30T00:58:50.840Z,20.36
2019-03-30T00:59:50.858Z,20.34
2019-03-30T01:00:50.845Z,20.36
2019-03-30T01:01:50.798Z,20.36
2019-03-30T01:02:50.790Z,20.36
2019-03-30T01:03:50.781Z,20.36
2019-03-30T01:04:50.808Z,20.36
2019-03-30T01:05:50.760Z,20.34
2019-03-30T01:06:50.742Z,20.36
2019-03-30T01:07:50.740Z,20.34
2019-03-30T01:08:50.722Z,20.37
2019-03-30T01:09:50.743Z,20.36
2019-03-30T01:10:50.700Z,20.36
2019-03-30T01:11:50.691Z,20.36
2019-03-30T01:12:50.678Z,20.36
2019-03-30T01:13:50.687Z,20.34
2019-03-30T01:14:50.666Z,20.36
2019-03-30T01:15:50.643Z,20.36
2019-03-30T01:16:50.633Z,20.36
2019-03-30T01:17:50.633Z,20.36
2019-03-30T01:18:50.642Z,20.36
2019-03-30T01:20:02.292Z,20.36
2019-03-30T01:20:51.590Z,20.36
2019-03-30T01:21:50.582Z,20.34
2019-03-30T01:22:50.570Z,20.36
2019-03-30T01:23:50.587Z,20.34
2019-03-30T01:24:50.550Z,20.37
2019-03-30T01:25:50.542Z,20.34
2019-03-30T01:26:50.525Z,20.34
2019-03-30T01:27:50.557Z,20.37
2019-03-30T01:28:50.504Z,20.37
2019-03-30T01:29:50.497Z,20.37
2019-03-30T01:30:50.485Z,20.36
2019-03-30T01:31:50.470Z,20.36
2019-03-30T01:32:50.484Z,20.36
2019-03-30T01:33:50.453Z,20.36
2019-03-30T01:34:50.445Z,20.34
2019-03-30T01:35:50.430Z,20.37
2019-03-30T01:36:50.426Z,20.36
2019-03-30T01:37:50.405Z,20.34
2019-03-30T01:38:50.416Z,20.37
2019-03-30T01:39:50.385Z,20.37
2019-03-30T01:40:50.384Z,20.36
2019-03-30T01:41:50.361Z,20.36
2019-03-30T01:42:50.374Z,20.36
2019-03-30T01:43:50.347Z,20.37
2019-03-30T01:44:50.330Z,20.36
2019-03-30T01:45:50.318Z,20.36
2019-03-30T01:46:50.314Z,20.37
2019-03-30T01:47:50.319Z,20.36
2019-03-30T01:48:50.288Z,20.36
2019-03-30T01:49:50.279Z,20.37
2019-03-30T01:50:50.291Z,20.36
2019-03-30T01:51:50.258Z,20.34
2019-03-30T01:52:50.268Z,20.39
2019-03-30T01:53:50.233Z,20.37
2019-03-30T01:54:50.227Z,20.37
2019-03-30T01:55:50.218Z,20.37
2019-03-30T01:56:50.200Z,20.36
2019-03-30T01:57:50.408Z,20.36
2019-03-30T01:58:50.182Z,20.36
2019-03-30T01:59:50.173Z,20.36
2019-03-30T02:00:50.157Z,20.37
2019-03-30T02:01:50.153Z,20.36
2019-03-30T02:02:50.137Z,20.36
2019-03-30T02:03:50.154Z,20.36
2019-03-30T02:04:50.117Z,20.36
2019-03-30T02:05:50.106Z,20.37
2019-03-30T02:06:50.099Z,20.37
2019-03-30T02:07:50.083Z,20.36
2019-03-30T02:08:50.096Z,20.36
2019-03-30T02:09:50.063Z,20.37
2019-03-30T02:10:50.055Z,20.37
2019-03-30T02:11:50.038Z,20.36
2019-03-30T02:12:50.033Z,20.36
2019-03-30T02:13:50.046Z,20.36
2019-03-30T02:14:50.012Z,20.36
2019-03-30T02:15:50.043Z,20.36
2019-03-30T02:16:49.988Z,20.36
2019-03-30T02:17:49.977Z,20.36
2019-03-30T02:18:49.982Z,20.36
2019-03-30T02:19:49.962Z,20.36
2019-03-30T02:20:49.944Z,20.36
2019-03-30T02:21:49.934Z,20.37
2019-03-30T02:22:49.947Z,20.37
2019-03-30T02:23:49.908Z,20.36
2019-03-30T02:24:49.896Z,20.36
2019-03-30T02:25:49.890Z,20.36
2019-03-30T02:26:49.897Z,20.36
2019-03-30T02:27:49.894Z,20.36
2019-03-30T02:28:49.856Z,20.37
2019-03-30T02:29:49.844Z,20.36
2019-03-30T02:30:49.911Z,20.36
2019-03-30T02:31:49.826Z,20.36
2019-03-30T02:32:49.846Z,20.36
2019-03-30T02:33:49.806Z,20.37
2019-03-30T02:34:49.797Z,20.34
2019-03-30T02:35:49.786Z,20.36
2019-03-30T02:36:49.771Z,20.36
2019-03-30T02:37:49.794Z,20.34
2019-03-30T02:38:49.775Z,20.36
2019-03-30T02:39:49.737Z,20.37
2019-03-30T02:40:49.735Z,20.36
2019-03-30T02:41:49.717Z,20.34
2019-03-30T02:42:49.710Z,20.36
2019-03-30T02:43:49.716Z,20.36
2019-03-30T02:44:49.679Z,20.36
2019-03-30T02:45:49.670Z,20.36
2019-03-30T02:46:49.663Z,20.36
2019-03-30T02:47:49.662Z,20.34
2019-03-30T02:48:49.646Z,20.36
2019-03-30T02:49:49.678Z,20.36
2019-03-30T02:50:50.749Z,20.36
2019-03-30T02:51:49.637Z,20.36
2019-03-30T02:52:49.597Z,20.36
2019-03-30T02:53:49.588Z,20.36
2019-03-30T02:54:49.601Z,20.36
2019-03-30T02:55:49.585Z,20.36
2019-03-30T02:56:49.566Z,20.36
2019-03-30T02:57:49.574Z,20.36
2019-03-30T02:58:49.530Z,20.36
2019-03-30T02:59:49.565Z,20.36
2019-03-30T03:00:49.533Z,20.36
2019-03-30T03:01:49.506Z,20.36
2019-03-30T03:02:49.493Z,20.36
2019-03-30T03:03:49.613Z,20.34
2019-03-30T03:04:49.468Z,20.34
2019-03-30T03:05:49.481Z,20.34
2019-03-30T03:06:49.443Z,20.36
2019-03-30T03:07:49.437Z,20.36
2019-03-30T03:08:49.427Z,20.34
2019-03-30T03:09:49.442Z,20.34
2019-03-30T03:10:49.438Z,20.36
2019-03-30T03:11:49.397Z,20.34
2019-03-30T03:12:49.391Z,20.34
2019-03-30T03:13:49.370Z,20.34
2019-03-30T03:14:49.359Z,20.36
2019-03-30T03:15:49.354Z,20.34
2019-03-30T03:16:49.368Z,20.34
2019-03-30T03:17:49.389Z,20.34
2019-03-30T03:18:49.318Z,20.36
2019-03-30T03:19:49.305Z,20.34
2019-03-30T03:21:06.096Z,20.34
2019-03-30T03:21:50.311Z,20.34
2019-03-30T03:22:49.289Z,20.34
2019-03-30T03:23:49.266Z,20.34
2019-03-30T03:24:49.262Z,20.32
2019-03-30T03:25:49.240Z,20.34
2019-03-30T03:26:49.256Z,20.34
2019-03-30T03:27:49.221Z,20.32
2019-03-30T03:28:49.208Z,20.34
2019-03-30T03:29:49.199Z,20.34
2019-03-30T03:30:49.195Z,20.32
2019-03-30T03:31:49.205Z,20.32
2019-03-30T03:32:49.163Z,20.34
2019-03-30T03:33:49.162Z,20.32
2019-03-30T03:34:49.141Z,20.32
2019-03-30T03:35:49.187Z,20.32
2019-03-30T03:36:49.117Z,20.32
2019-03-30T03:37:49.337Z,20.32
2019-03-30T03:38:49.158Z,20.32
2019-03-30T03:39:49.091Z,20.34
2019-03-30T03:40:49.075Z,20.31
2019-03-30T03:41:49.068Z,20.32
2019-03-30T03:42:49.063Z,20.34
2019-03-30T03:43:49.074Z,20.32
2019-03-30T03:44:49.031Z,20.32
2019-03-30T03:45:49.044Z,20.32
2019-03-30T03:46:49.016Z,20.34
2019-03-30T03:47:49.056Z,20.32
2019-03-30T03:48:48.991Z,20.32
2019-03-30T03:49:49.008Z,20.32
2019-03-30T03:50:48.966Z,20.32
2019-03-30T03:51:48.958Z,20.32
2019-03-30T03:52:48.945Z,20.32
2019-03-30T03:53:48.938Z,20.31
2019-03-30T03:54:48.944Z,20.32
2019-03-30T03:55:48.916Z,20.32
2019-03-30T03:56:48.903Z,20.31
2019-03-30T03:57:48.893Z,20.32
2019-03-30T03:58:48.955Z,20.32
2019-03-30T03:59:48.868Z,20.31
2019-03-30T04:00:48.886Z,20.32
2019-03-30T04:01:48.844Z,20.31
2019-03-30T04:02:48.839Z,20.31
2019-03-30T04:03:48.858Z,20.32
2019-03-30T04:04:48.815Z,20.31
2019-03-30T04:05:48.803Z,20.31
2019-03-30T04:06:48.791Z,20.31
2019-03-30T04:07:48.783Z,20.31
2019-03-30T04:08:48.809Z,20.31
2019-03-30T04:09:48.787Z,20.32
2019-03-30T04:10:48.810Z,20.31
2019-03-30T04:11:48.736Z,20.32
2019-03-30T04:12:48.741Z,20.32
2019-03-30T04:13:48.714Z,20.31
2019-03-30T04:14:48.735Z,20.31
2019-03-30T04:15:48.693Z,20.31
2019-03-30T04:16:48.683Z,20.31
2019-03-30T04:17:48.672Z,20.31
2019-03-30T04:18:48.766Z,20.31
2019-03-30T04:19:48.670Z,20.29
2019-03-30T04:20:48.649Z,20.31
2019-03-30T04:21:48.671Z,20.29
2019-03-30T04:22:48.611Z,20.31
2019-03-30T04:23:48.607Z,20.31
2019-03-30T04:24:48.597Z,20.31
2019-03-30T04:25:48.603Z,20.29
2019-03-30T04:26:48.593Z,20.31
2019-03-30T04:27:48.557Z,20.29
2019-03-30T04:28:48.552Z,20.31
2019-03-30T04:29:48.583Z,20.31
2019-03-30T04:30:48.528Z,20.29
2019-03-30T04:31:48.554Z,20.31
2019-03-30T04:32:48.508Z,20.29
2019-03-30T04:33:48.494Z,20.29
2019-03-30T04:34:48.510Z,20.29
2019-03-30T04:35:48.469Z,20.29
2019-03-30T04:36:48.476Z,20.31
2019-03-30T04:37:48.452Z,20.31
2019-03-30T04:38:48.444Z,20.29
2019-03-30T04:39:48.464Z,20.29
2019-03-30T04:40:48.420Z,20.31
2019-03-30T04:41:48.402Z,20.29
2019-03-30T04:42:48.403Z,20.29
2019-03-30T04:43:48.471Z,20.29
2019-03-30T04:44:48.379Z,20.29
2019-03-30T04:45:48.387Z,20.29
2019-03-30T04:46:48.348Z,20.29
2019-03-30T04:47:48.341Z,20.31
2019-03-30T04:48:48.337Z,20.29
2019-03-30T04:49:48.400Z,20.29
2019-03-30T04:50:48.333Z,20.28
2019-03-30T04:51:57.549Z,20.29
2019-03-30T04:52:49.296Z,20.29
2019-03-30T04:53:48.280Z,20.31
2019-03-30T04:54:48.280Z,20.29
2019-03-30T04:55:48.255Z,20.29
2019-03-30T04:56:48.269Z,20.28
2019-03-30T04:57:49.877Z,20.29
2019-03-30T04:58:48.216Z,20.28
2019-03-30T04:59:48.206Z,20.31
2019-03-30T05:00:48.217Z,20.28
2019-03-30T05:01:48.210Z,20.29
2019-03-30T05:02:48.178Z,20.29
2019-03-30T05:03:48.168Z,20.29
2019-03-30T05:04:48.213Z,20.29
2019-03-30T05:05:48.159Z,20.28
2019-03-30T05:06:48.172Z,20.28
2019-03-30T05:07:48.137Z,20.28
2019-03-30T05:08:48.108Z,20.28
2019-03-30T05:09:48.103Z,20.29
2019-03-30T05:10:48.087Z,20.29
2019-03-30T05:11:48.082Z,20.28
2019-03-30T05:12:48.086Z,20.29
2019-03-30T05:13:48.053Z,20.28
2019-03-30T05:14:48.044Z,20.29
2019-03-30T05:15:48.032Z,20.31
2019-03-30T05:16:48.027Z,20.31
2019-03-30T05:17:48.311Z,20.34
2019-03-30T05:18:48.002Z,20.36
2019-03-30T05:19:47.987Z,20.36
2019-03-30T05:20:47.978Z,20.37
2019-03-30T05:21:47.986Z,20.39
2019-03-30T05:22:51.111Z,20.39
2019-03-30T05:23:47.942Z,20.43
2019-03-30T05:24:47.933Z,20.41
2019-03-30T05:25:47.928Z,20.44
2019-03-30T05:26:47.939Z,20.47
2019-03-30T05:27:47.901Z,20.48
2019-03-30T05:28:47.899Z,20.48
2019-03-30T05:29:47.879Z,20.51
2019-03-30T05:30:47.869Z,20.52
2019-03-30T05:31:47.887Z,20.51
2019-03-30T05:32:47.847Z,20.55
2019-03-30T05:33:47.841Z,20.56
2019-03-30T05:34:47.826Z,20.56
2019-03-30T05:35:47.812Z,20.58
2019-03-30T05:36:47.831Z,20.59
2019-03-30T05:37:47.803Z,20.62
2019-03-30T05:38:47.784Z,20.62
2019-03-30T05:39:47.799Z,20.63
2019-03-30T05:40:47.775Z,20.63
2019-03-30T05:41:47.748Z,20.65
2019-03-30T05:42:47.740Z,20.65
2019-03-30T05:43:47.754Z,20.65
2019-03-30T05:44:47.720Z,20.66
2019-03-30T05:45:47.707Z,20.66
2019-03-30T05:46:47.698Z,20.66
2019-03-30T05:47:47.693Z,20.67
2019-03-30T05:48:47.715Z,20.66
2019-03-30T05:49:47.676Z,20.67
2019-03-30T05:50:47.658Z,20.67
2019-03-30T05:51:47.646Z,20.67
2019-03-30T05:52:47.639Z,20.67
2019-03-30T05:53:47.621Z,20.66
2019-03-30T05:54:47.635Z,20.69
2019-03-30T05:55:47.604Z,20.67
2019-03-30T05:56:47.609Z,20.67
2019-03-30T05:57:47.591Z,20.67
2019-03-30T05:58:47.568Z,20.67
2019-03-30T05:59:47.577Z,20.66
2019-03-30T06:00:47.569Z,20.67
2019-03-30T06:01:47.534Z,20.67
2019-03-30T06:02:47.528Z,20.67
2019-03-30T06:03:47.523Z,20.67
2019-03-30T06:04:47.592Z,20.67
2019-03-30T06:05:47.496Z,20.69
2019-03-30T06:06:47.483Z,20.67
2019-03-30T06:07:47.471Z,20.66
2019-03-30T06:08:47.468Z,20.66
2019-03-30T06:09:47.468Z,20.66
2019-03-30T06:10:47.465Z,20.67
2019-03-30T06:11:47.432Z,20.67
2019-03-30T06:12:47.422Z,20.66
2019-03-30T06:13:47.402Z,20.66
2019-03-30T06:14:47.415Z,20.66
2019-03-30T06:15:47.386Z,20.66
2019-03-30T06:16:47.406Z,20.66
2019-03-30T06:17:47.358Z,20.67
2019-03-30T06:18:47.360Z,20.65
2019-03-30T06:19:47.338Z,20.65
2019-03-30T06:20:47.336Z,20.65
2019-03-30T06:21:47.536Z,20.65
2019-03-30T06:22:47.305Z,20.63
2019-03-30T06:23:48.689Z,20.65
2019-03-30T06:24:47.290Z,20.63
2019-03-30T06:25:47.274Z,20.63
2019-03-30T06:26:47.275Z,20.62
2019-03-30T06:27:47.275Z,20.62
2019-03-30T06:28:47.249Z,20.62
2019-03-30T06:29:47.236Z,20.60
2019-03-30T06:30:47.223Z,20.62
2019-03-30T06:31:47.232Z,20.60
2019-03-30T06:32:47.209Z,20.60
2019-03-30T06:33:47.196Z,20.60
2019-03-30T06:34:47.174Z,20.60
2019-03-30T06:35:47.163Z,20.60
2019-03-30T06:36:47.196Z,20.59
2019-03-30T06:37:47.149Z,20.59
2019-03-30T06:38:47.155Z,20.58
2019-03-30T06:39:47.218Z,20.59
2019-03-30T06:40:47.108Z,20.58
2019-03-30T06:41:47.099Z,20.59
2019-03-30T06:42:47.129Z,20.58
2019-03-30T06:43:47.085Z,20.58
2019-03-30T06:44:47.071Z,20.58
2019-03-30T06:45:47.053Z,20.56
2019-03-30T06:46:47.073Z,20.58
2019-03-30T06:47:47.044Z,20.58
2019-03-30T06:48:47.087Z,20.58
2019-03-30T06:49:47.020Z,20.56
2019-03-30T06:50:47.012Z,20.55
2019-03-30T06:51:46.997Z,20.56
2019-03-30T06:52:57.660Z,20.58
2019-03-30T06:53:47.998Z,20.56
2019-03-30T06:54:46.966Z,20.56
2019-03-30T06:55:46.950Z,20.56
2019-03-30T06:56:46.975Z,20.56
2019-03-30T06:57:46.933Z,20.56
2019-03-30T06:58:46.915Z,20.56
2019-03-30T06:59:46.904Z,20.55
2019-03-30T07:00:46.898Z,20.58
2019-03-30T07:01:46.890Z,20.56
2019-03-30T07:02:47.095Z,20.58
2019-03-30T07:03:46.863Z,20.58
2019-03-30T07:04:46.859Z,20.56
2019-03-30T07:05:46.838Z,20.56
2019-03-30T07:06:46.834Z,20.58
2019-03-30T07:07:46.821Z,20.59
2019-03-30T07:08:47.020Z,20.59
2019-03-30T07:09:46.799Z,20.59
2019-03-30T07:10:46.809Z,20.58
2019-03-30T07:11:46.776Z,20.58
2019-03-30T07:12:46.787Z,20.59
2019-03-30T07:13:46.759Z,20.59
2019-03-30T07:14:46.766Z,20.59
2019-03-30T07:15:46.741Z,20.58
2019-03-30T07:16:46.728Z,20.58
2019-03-30T07:17:46.718Z,20.59
2019-03-30T07:18:46.707Z,20.58
2019-03-30T07:19:46.716Z,20.58
2019-03-30T07:20:46.690Z,20.58
2019-03-30T07:21:46.667Z,20.58
2019-03-30T07:22:46.690Z,20.59
2019-03-30T07:23:46.670Z,20.59
2019-03-30T07:24:46.640Z,20.59
2019-03-30T07:25:46.651Z,20.59
2019-03-30T07:26:46.619Z,20.59
2019-03-30T07:27:46.606Z,20.59
2019-03-30T07:28:47.188Z,20.59
2019-03-30T07:29:46.587Z,20.59
2019-03-30T07:30:46.607Z,20.59
2019-03-30T07:31:46.570Z,20.59
2019-03-30T07:32:46.552Z,20.59
2019-03-30T07:33:46.537Z,20.60
2019-03-30T07:34:46.535Z,20.59
2019-03-30T07:35:46.533Z,20.59
2019-03-30T07:36:46.538Z,20.58
2019-03-30T07:37:46.492Z,20.60
2019-03-30T07:38:46.487Z,20.60
2019-03-30T07:39:46.474Z,20.60
2019-03-30T07:40:46.460Z,20.60
2019-03-30T07:41:46.457Z,20.60
2019-03-30T07:42:46.463Z,20.59
2019-03-30T07:43:46.425Z,20.60
2019-03-30T07:44:46.425Z,20.62
2019-03-30T07:45:46.434Z,20.60
2019-03-30T07:46:46.404Z,20.60
2019-03-30T07:47:46.408Z,20.60
2019-03-30T07:48:46.380Z,20.60
2019-03-30T07:49:46.391Z,20.59
2019-03-30T07:50:46.360Z,20.60
2019-03-30T07:51:46.348Z,20.60
2019-03-30T07:52:46.332Z,20.59
2019-03-30T07:53:46.339Z,20.60
2019-03-30T07:54:46.306Z,20.60
2019-03-30T07:55:46.302Z,20.62
2019-03-30T07:56:46.286Z,20.59
2019-03-30T07:57:46.281Z,20.60
2019-03-30T07:58:46.292Z,20.60
2019-03-30T07:59:46.255Z,20.60
2019-03-30T08:00:46.244Z,20.62
2019-03-30T08:01:46.239Z,20.59
2019-03-30T08:02:46.243Z,20.60
2019-03-30T08:03:46.210Z,20.60
2019-03-30T08:04:46.204Z,20.60
2019-03-30T08:05:46.187Z,20.60
2019-03-30T08:06:46.179Z,20.60
2019-03-30T08:07:46.187Z,20.60
2019-03-30T08:08:46.183Z,20.60
2019-03-30T08:09:46.147Z,20.60
2019-03-30T08:10:46.137Z,20.60
2019-03-30T08:11:46.153Z,20.62
2019-03-30T08:12:46.117Z,20.62
2019-03-30T08:13:46.122Z,20.60
2019-03-30T08:14:46.139Z,20.62
2019-03-30T08:15:46.090Z,20.60
2019-03-30T08:16:46.070Z,20.63
2019-03-30T08:17:46.058Z,20.62
2019-03-30T08:18:46.093Z,20.60
2019-03-30T08:19:46.045Z,20.62
2019-03-30T08:20:46.042Z,20.60
2019-03-30T08:21:46.026Z,20.62
2019-03-30T08:22:46.009Z,20.62
2019-03-30T08:23:46.006Z,20.62
2019-03-30T08:24:46.017Z,20.60
2019-03-30T08:25:45.977Z,20.62
2019-03-30T08:26:45.963Z,20.62
2019-03-30T08:27:45.958Z,20.60
2019-03-30T08:28:45.940Z,20.62
2019-03-30T08:29:45.954Z,20.62
2019-03-30T08:30:45.945Z,20.60
2019-03-30T08:31:45.924Z,20.60
2019-03-30T08:32:45.899Z,20.60
2019-03-30T08:33:45.893Z,20.60
2019-03-30T08:34:45.878Z,20.60
2019-03-30T08:35:45.889Z,20.62
2019-03-30T08:36:45.861Z,20.62
2019-03-30T08:37:45.848Z,20.60
2019-03-30T08:38:45.836Z,20.60
2019-03-30T08:39:45.820Z,20.60
2019-03-30T08:40:45.809Z,20.60
2019-03-30T08:41:45.839Z,20.60
2019-03-30T08:42:45.808Z,20.60
2019-03-30T08:43:45.782Z,20.60
2019-03-30T08:44:45.769Z,20.60
2019-03-30T08:45:48.773Z,20.60
2019-03-30T08:46:45.764Z,20.62
2019-03-30T08:47:45.739Z,20.63
2019-03-30T08:48:45.723Z,20.63
2019-03-30T08:49:45.722Z,20.65
2019-03-30T08:50:45.699Z,20.62
2019-03-30T08:51:45.899Z,20.63
2019-03-30T08:52:45.685Z,20.66
2019-03-30T08:53:54.534Z,20.66
2019-03-30T08:54:46.655Z,20.65
2019-03-30T08:55:45.642Z,20.66
2019-03-30T08:56:45.639Z,20.66
2019-03-30T08:57:45.711Z,20.66
2019-03-30T08:58:45.615Z,20.66
2019-03-30T08:59:45.601Z,20.66
2019-03-30T09:00:45.593Z,20.69
2019-03-30T09:01:45.584Z,20.67
2019-03-30T09:02:45.595Z,20.66
2019-03-30T09:03:45.563Z,20.67
2019-03-30T09:04:45.547Z,20.66
2019-03-30T09:05:45.538Z,20.67
2019-03-30T09:06:45.553Z,20.67
2019-03-30T09:07:45.519Z,20.66
2019-03-30T09:08:45.531Z,20.67
2019-03-30T09:09:45.494Z,20.66
2019-03-30T09:10:45.478Z,20.69
2019-03-30T09:11:45.485Z,20.66
2019-03-30T09:12:45.461Z,20.67
2019-03-30T09:13:45.483Z,20.66
2019-03-30T09:14:45.434Z,20.67
2019-03-30T09:15:45.430Z,20.67
2019-03-30T09:16:45.420Z,20.70
2019-03-30T09:17:45.412Z,20.69
2019-03-30T09:18:45.401Z,20.67
2019-03-30T09:19:45.404Z,20.67
2019-03-30T09:20:45.368Z,20.70
2019-03-30T09:21:45.365Z,20.70
2019-03-30T09:22:45.356Z,20.70
2019-03-30T09:23:45.342Z,20.70
2019-03-30T09:24:45.360Z,20.69
2019-03-30T09:25:45.321Z,20.69
2019-03-30T09:26:45.338Z,20.69
2019-03-30T09:27:45.297Z,20.69
2019-03-30T09:28:45.290Z,20.72
2019-03-30T09:29:45.279Z,20.72
2019-03-30T09:30:45.293Z,20.72
2019-03-30T09:31:45.269Z,20.72
2019-03-30T09:32:45.391Z,20.72
2019-03-30T09:33:45.249Z,20.74
2019-03-30T09:34:45.217Z,20.74
2019-03-30T09:35:45.208Z,20.74
2019-03-30T09:36:45.352Z,20.74
2019-03-30T09:37:45.210Z,20.75
2019-03-30T09:38:45.182Z,20.74
2019-03-30T09:39:45.163Z,20.75
2019-03-30T09:40:45.162Z,20.77
2019-03-30T09:41:45.166Z,20.77
2019-03-30T09:42:45.132Z,20.78
2019-03-30T09:43:45.125Z,20.78
2019-03-30T09:44:45.113Z,20.80
2019-03-30T09:45:45.123Z,20.81
2019-03-30T09:46:45.090Z,20.80
2019-03-30T09:47:45.076Z,20.80
2019-03-30T09:48:45.065Z,20.80
2019-03-30T09:49:45.055Z,20.81
2019-03-30T09:50:45.083Z,20.80
2019-03-30T09:51:45.038Z,20.81
2019-03-30T09:52:45.032Z,20.81
2019-03-30T09:53:45.012Z,20.81
2019-03-30T09:54:45.221Z,20.81
2019-03-30T09:55:45.001Z,20.82
2019-03-30T09:56:44.987Z,20.82
2019-03-30T09:57:44.975Z,20.82
2019-03-30T09:58:44.968Z,20.81
2019-03-30T09:59:44.949Z,20.82
2019-03-30T10:00:44.986Z,20.82
2019-03-30T10:01:44.931Z,20.82
2019-03-30T10:02:44.928Z,20.82
2019-03-30T10:03:44.928Z,20.82
2019-03-30T10:04:44.895Z,20.82
2019-03-30T10:05:45.108Z,20.84
2019-03-30T10:06:44.877Z,20.82
2019-03-30T10:07:44.865Z,20.84
2019-03-30T10:08:44.853Z,20.82
2019-03-30T10:09:47.315Z,20.84
2019-03-30T10:10:44.829Z,20.84
2019-03-30T10:11:45.038Z,20.81
2019-03-30T10:12:44.808Z,20.82
2019-03-30T10:13:44.826Z,20.84
2019-03-30T10:14:44.791Z,20.82
2019-03-30T10:15:44.778Z,20.81
2019-03-30T10:16:44.772Z,20.82
2019-03-30T10:17:44.785Z,20.81
2019-03-30T10:18:44.753Z,20.81
2019-03-30T10:19:48.122Z,20.81
2019-03-30T10:20:45.726Z,20.81
2019-03-30T10:21:44.732Z,20.81
2019-03-30T10:22:44.730Z,20.80
2019-03-30T10:23:44.696Z,20.80
2019-03-30T10:24:44.679Z,20.81
2019-03-30T10:25:44.672Z,20.80
2019-03-30T10:26:44.676Z,20.78
2019-03-30T10:27:44.644Z,20.78
2019-03-30T10:28:47.091Z,20.80
2019-03-30T10:29:44.622Z,20.78
2019-03-30T10:30:44.616Z,20.78
2019-03-30T10:31:44.601Z,20.80
2019-03-30T10:32:44.591Z,20.78
2019-03-30T10:33:44.621Z,20.77
2019-03-30T10:34:44.582Z,20.78
2019-03-30T10:35:44.566Z,20.78
2019-03-30T10:36:44.570Z,20.77
2019-03-30T10:37:44.553Z,20.78
2019-03-30T10:38:44.571Z,20.77
2019-03-30T10:39:44.514Z,20.77
2019-03-30T10:40:44.513Z,20.77
2019-03-30T10:41:44.495Z,20.77
2019-03-30T10:42:44.482Z,20.77
2019-03-30T10:43:44.471Z,20.75
2019-03-30T10:44:44.485Z,20.77
2019-03-30T10:45:44.459Z,20.75
2019-03-30T10:46:44.441Z,20.77
2019-03-30T10:47:44.434Z,20.77
2019-03-30T10:48:44.443Z,20.75
2019-03-30T10:49:44.426Z,20.75
2019-03-30T10:50:44.398Z,20.75
2019-03-30T10:51:44.394Z,20.75
2019-03-30T10:52:44.375Z,20.75
2019-03-30T10:53:44.393Z,20.75
2019-03-30T10:54:52.492Z,20.75
2019-03-30T10:55:45.350Z,20.75
2019-03-30T10:56:44.338Z,20.77
2019-03-30T10:57:44.324Z,20.75
2019-03-30T10:58:44.351Z,20.74
2019-03-30T10:59:44.318Z,20.75
2019-03-30T11:00:44.291Z,20.74
2019-03-30T11:01:44.278Z,20.74
2019-03-30T11:02:44.266Z,20.74
2019-03-30T11:03:44.257Z,20.74
2019-03-30T11:04:44.266Z,20.74
2019-03-30T11:05:44.241Z,20.75
2019-03-30T11:06:44.228Z,20.74
2019-03-30T11:07:44.215Z,20.74
2019-03-30T11:08:44.227Z,20.75
2019-03-30T11:09:44.201Z,20.74
2019-03-30T11:10:44.190Z,20.75
2019-03-30T11:11:44.180Z,20.74
2019-03-30T11:12:44.173Z,20.74
2019-03-30T11:13:44.176Z,20.74
2019-03-30T11:14:44.149Z,20.75
2019-03-30T11:15:44.134Z,20.75
2019-03-30T11:16:44.121Z,20.74
2019-03-30T11:17:44.114Z,20.74
2019-03-30T11:18:44.125Z,20.74
2019-03-30T11:19:44.092Z,20.74
2019-03-30T11:20:44.080Z,20.75
2019-03-30T11:21:44.063Z,20.74
2019-03-30T11:22:44.063Z,20.74
2019-03-30T11:23:44.044Z,20.74
2019-03-30T11:24:44.066Z,20.74
2019-03-30T11:25:44.028Z,20.72
2019-03-30T11:26:44.009Z,20.72
2019-03-30T11:27:44.000Z,20.74
2019-03-30T11:28:43.989Z,20.72
2019-03-30T11:29:44.156Z,20.72
2019-03-30T11:30:43.975Z,20.72
2019-03-30T11:31:43.960Z,20.74
2019-03-30T11:32:43.952Z,20.74
2019-03-30T11:33:43.936Z,20.74
2019-03-30T11:34:43.926Z,20.74
2019-03-30T11:35:43.957Z,20.74
2019-03-30T11:36:43.924Z,20.74
2019-03-30T11:37:43.894Z,20.74
2019-03-30T11:38:43.887Z,20.74
2019-03-30T11:39:43.870Z,20.74
2019-03-30T11:40:43.859Z,20.74
2019-03-30T11:41:43.879Z,20.74
2019-03-30T11:42:43.845Z,20.74
2019-03-30T11:43:43.836Z,20.72
2019-03-30T11:44:43.845Z,20.74
2019-03-30T11:45:43.817Z,20.74
2019-03-30T11:46:43.799Z,20.74
2019-03-30T11:47:43.790Z,20.72
2019-03-30T11:48:43.776Z,20.70
2019-03-30T11:49:43.807Z,20.72
2019-03-30T11:50:43.756Z,20.72
2019-03-30T11:51:43.751Z,20.74
2019-03-30T11:52:43.730Z,20.74
2019-03-30T11:53:43.724Z,20.74
2019-03-30T11:54:43.715Z,20.72
2019-03-30T11:55:43.738Z,20.72
2019-03-30T11:56:43.699Z,20.72
2019-03-30T11:57:43.685Z,20.72
2019-03-30T11:58:43.671Z,20.72
2019-03-30T11:59:43.657Z,20.72
2019-03-30T12:00:43.686Z,20.72
2019-03-30T12:01:43.640Z,20.72
2019-03-30T12:02:43.630Z,20.72
2019-03-30T12:03:43.620Z,20.72
2019-03-30T12:04:43.607Z,20.72
2019-03-30T12:05:43.628Z,20.74
2019-03-30T12:06:43.587Z,20.72
2019-03-30T12:07:43.590Z,20.74
2019-03-30T12:08:43.563Z,20.74
2019-03-30T12:09:43.561Z,20.75
2019-03-30T12:10:43.548Z,20.74
2019-03-30T12:11:43.555Z,20.75
2019-03-30T12:12:43.521Z,20.75
2019-03-30T12:13:43.519Z,20.75
2019-03-30T12:14:43.505Z,20.75
2019-03-30T12:15:43.488Z,20.75
2019-03-30T12:16:43.498Z,20.75
2019-03-30T12:17:43.467Z,20.75
2019-03-30T12:18:43.479Z,20.75
2019-03-30T12:19:43.461Z,20.77
2019-03-30T12:20:43.429Z,20.78
2019-03-30T12:21:43.419Z,20.75
2019-03-30T12:22:43.414Z,20.77
2019-03-30T12:23:43.401Z,20.77
2019-03-30T12:24:43.438Z,20.77
2019-03-30T12:25:43.385Z,20.75
2019-03-30T12:26:43.366Z,20.75
2019-03-30T12:27:43.356Z,20.75
2019-03-30T12:28:43.356Z,20.77
2019-03-30T12:29:44.715Z,20.75
2019-03-30T12:30:43.321Z,20.75
2019-03-30T12:31:43.336Z,20.75
2019-03-30T12:32:43.308Z,20.75
2019-03-30T12:33:43.294Z,20.75
2019-03-30T12:34:43.307Z,20.77
2019-03-30T12:35:43.270Z,20.77
2019-03-30T12:36:43.259Z,20.77
2019-03-30T12:37:43.253Z,20.77
2019-03-30T12:38:43.237Z,20.77
2019-03-30T12:39:43.230Z,20.75
2019-03-30T12:40:43.256Z,20.77
2019-03-30T12:41:43.232Z,20.75
2019-03-30T12:42:43.193Z,20.75
2019-03-30T12:43:43.191Z,20.75
2019-03-30T12:44:43.175Z,20.74
2019-03-30T12:45:43.190Z,20.74
2019-03-30T12:46:43.149Z,20.70
2019-03-30T12:47:43.167Z,20.69
2019-03-30T12:48:43.134Z,20.69
2019-03-30T12:49:45.267Z,20.69
2019-03-30T12:50:43.111Z,20.69
2019-03-30T12:51:43.099Z,20.69
2019-03-30T12:52:43.117Z,20.70